Time;durP1;ratioP1;P1;durP2;ratioP2;P2;SDS_P1;SDS_P2;PMS_P1;PMS_P2;Temp;Humidity;BMP_temperature;BMP_pressure;BME280_temperature;BME280_humidity;BME280_pressure;Samples;Min_cycle;Max_cycle;Signal;HPM_P1;HPM_P2
2021/10/22 00:01:47;;;;;;;;;;;12.40;96.20;;;;;;4987562;28;20117;-79
2021/10/22 00:04:12;;;;;;;1.42;0.30;;;12.40;96.20;;;;;;4986499;28;20008;-79
2021/10/22 00:06:38;;;;;;;;;;;12.30;96.30;;;;;;4969619;28;20034;-79
2021/10/22 00:09:04;;;;;;;13.52;3.40;;;12.30;96.30;;;;;;4986728;28;20017;-78
2021/10/22 00:11:29;;;;;;;;;;;12.30;96.40;;;;;;4970173;28;20036;-78
2021/10/22 00:13:55;;;;;;;10.80;2.92;;;12.20;96.30;;;;;;4987233;28;20396;-78
2021/10/22 00:16:21;;;;;;;;;;;12.20;96.50;;;;;;4987585;28;20457;-77
2021/10/22 00:18:47;;;;;;;4.80;0.80;;;12.10;96.70;;;;;;4968809;28;19960;-78
2021/10/22 00:21:12;;;;;;;;;;;12.00;97.30;;;;;;4969970;28;20030;-77
2021/10/22 00:23:38;;;;;;;3.55;0.80;;;11.90;97.40;;;;;;4969079;28;19971;-78
2021/10/22 00:26:03;;;;;;;;;;;11.80;97.60;;;;;;4969613;28;20069;-78
2021/10/22 00:28:29;;;;;;;2.97;0.80;;;11.60;98.00;;;;;;4968861;28;20028;-77
2021/10/22 00:30:56;;;;;;;;;;;11.50;98.50;;;;;;4969960;28;20117;-77
2021/10/22 00:33:22;;;;;;;2.67;0.60;;;11.30;99.20;;;;;;4986622;28;19910;-78
2021/10/22 00:35:49;;;;;;;2.30;0.85;;;11.20;99.00;;;;;;4986758;28;20030;-78
2021/10/22 00:38:14;;;;;;;3.25;0.63;;;11.10;99.30;;;;;;4969752;28;20069;-75
2021/10/22 00:40:40;;;;;;;;;;;10.90;99.90;;;;;;4969899;28;20050;-78
2021/10/22 00:43:06;;;;;;;5.65;2.15;;;10.80;99.90;;;;;;4991226;28;19914;-78
2021/10/22 00:45:32;;;;;;;;;;;10.60;99.90;;;;;;4974341;28;20122;-76
2021/10/22 00:47:57;;;;;;;48.40;22.77;;;10.50;99.90;;;;;;4992104;28;19980;-77
2021/10/22 00:50:23;;;;;;;;;;;10.40;99.90;;;;;;4974827;28;20509;-75
2021/10/22 00:52:49;;;;;;;36.05;18.10;;;10.30;99.90;;;;;;4974210;28;19918;-75
2021/10/22 00:55:15;;;;;;;;;;;10.20;99.90;;;;;;4974507;28;20028;-78
2021/10/22 00:57:42;;;;;;;26.83;11.45;;;10.00;99.90;;;;;;4991719;28;19910;-76
2021/10/22 01:00:10;;;;;;;18.38;8.77;;;9.90;99.90;;;;;;4974445;28;20104;-75
2021/10/22 01:02:37;;;;;;;27.48;10.52;;;9.90;99.90;;;;;;4973851;28;20022;-76
2021/10/22 01:05:10;;;;;;;13.32;6.93;;;9.80;99.90;;;;;;4973722;28;20049;-76
2021/10/22 01:07:39;;;;;;;13.27;5.13;;;9.70;99.90;;;;;;4991495;28;20026;-75
2021/10/22 01:10:06;;;;;;;8.25;3.53;;;9.60;99.90;;;;;;4992103;28;20442;-76
2021/10/22 01:12:33;;;;;;;8.85;3.35;;;9.50;99.90;;;;;;4974106;28;20049;-76
2021/10/22 01:15:00;;;;;;;10.70;2.88;;;9.40;99.90;;;;;;4974246;28;20023;-76
2021/10/22 01:17:34;;;;;;;7.35;2.67;;;9.30;99.90;;;;;;4992671;28;20026;-75
2021/10/22 01:20:00;;;;;;;10.23;3.20;;;9.10;99.90;;;;;;4993915;28;20026;-76
2021/10/22 01:22:26;;;;;;;;;;;9.10;99.90;;;;;;4976796;28;20026;-76
2021/10/22 01:24:52;;;;;;;9.00;2.40;;;9.00;99.90;;;;;;4994478;28;19917;-76
2021/10/22 01:27:17;;;;;;;10.43;2.20;;;8.90;99.90;;;;;;4975873;28;20027;-76
2021/10/22 01:29:43;;;;;;;;;;;8.80;99.90;;;;;;4995646;28;20049;-75
2021/10/22 01:32:09;;;;;;;7.32;1.83;;;8.70;99.90;;;;;;4996895;28;19910;-76
2021/10/22 01:34:34;;;;;;;;;;;8.60;99.90;;;;;;5001961;28;20030;-75
2021/10/22 01:37:00;;;;;;;7.57;1.60;;;8.50;99.90;;;;;;4997928;28;19932;-75
2021/10/22 01:39:25;;;;;;;;;;;8.50;99.90;;;;;;4994592;28;20030;-75
2021/10/22 01:41:51;;;;;;;4.78;1.23;;;8.40;99.90;;;;;;4980977;28;19916;-77
2021/10/22 01:44:22;;;;;;;7.88;1.00;;;8.30;99.90;;;;;;4980379;28;20034;-76
2021/10/22 01:46:49;;;;;;;3.15;0.90;;;8.20;99.90;;;;;;4974307;28;20462;-77
2021/10/22 01:49:14;;;;;;;4.70;0.82;;;8.20;99.90;;;;;;4992386;28;20046;-75
2021/10/22 01:51:40;;;;;;;;;;;8.10;99.90;;;;;;4992958;28;20061;-75
2021/10/22 01:54:06;;;;;;;3.40;1.02;;;8.10;99.90;;;;;;4991260;28;20084;-76
2021/10/22 01:56:31;;;;;;;3.03;1.00;;;8.00;99.90;;;;;;4993263;28;20065;-75
2021/10/22 01:58:57;;;;;;;5.85;0.75;;;7.90;99.90;;;;;;4992912;28;20030;-76
2021/10/22 02:01:23;;;;;;;2.83;1.10;;;7.90;99.90;;;;;;4993708;28;20486;-75
2021/10/22 02:03:48;;;;;;;3.95;0.70;;;7.80;99.90;;;;;;4994287;28;20034;-76
2021/10/22 02:06:14;;;;;;;3.67;1.38;;;7.80;99.90;;;;;;4976663;28;20038;-75
2021/10/22 02:08:40;;;;;;;;;;;7.70;99.90;;;;;;4994941;28;20035;-76
2021/10/22 02:11:05;;;;;;;4.68;1.48;;;7.70;99.90;;;;;;4995546;28;20302;-75
2021/10/22 02:13:31;;;;;;;;;;;7.60;99.90;;;;;;4978291;28;20037;-76
2021/10/22 02:15:56;;;;;;;3.05;0.50;;;7.60;99.90;;;;;;4977380;28;19909;-76
2021/10/22 02:18:22;;;;;;;;;;;7.50;99.90;;;;;;4995481;28;20073;-75
2021/10/22 02:20:48;;;;;;;2.50;0.75;;;7.50;99.90;;;;;;4977266;28;19906;-75
2021/10/22 02:23:14;;;;;;;3.30;0.85;;;7.50;99.90;;;;;;4995559;28;20035;-76
2021/10/22 02:25:39;;;;;;;;;;;7.50;99.90;;;;;;4978190;28;20030;-75
2021/10/22 02:28:05;;;;;;;10.23;1.27;;;7.50;99.90;;;;;;4994932;28;20306;-75
2021/10/22 02:30:31;;;;;;;;;;;7.50;99.90;;;;;;4996359;28;20419;-76
2021/10/22 02:32:57;;;;;;;3.83;1.40;;;7.60;99.90;;;;;;4977541;28;20004;-76
2021/10/22 02:35:22;;;;;;;4.35;1.40;;;7.60;99.90;;;;;;4977517;28;20518;-76
2021/10/22 02:37:48;;;;;;;;;;;7.60;99.90;;;;;;4996346;28;20031;-76
2021/10/22 02:40:15;;;;;;;5.80;1.90;;;7.70;99.90;;;;;;4975102;28;19910;-76
2021/10/22 02:42:41;;;;;;;3.10;1.63;;;7.70;99.90;;;;;;4991743;28;20026;-75
2021/10/22 02:45:07;;;;;;;;;;;7.80;99.90;;;;;;4992718;28;20105;-75
2021/10/22 02:47:33;;;;;;;4.80;1.70;;;7.90;99.90;;;;;;4974315;28;19917;-77
2021/10/22 02:49:59;;;;;;;;;;;7.90;99.90;;;;;;4992988;28;20037;-75
2021/10/22 02:52:25;;;;;;;2.83;1.15;;;8.00;99.90;;;;;;4971452;28;19922;-76
2021/10/22 02:54:50;;;;;;;;;;;8.00;99.90;;;;;;4971318;28;20093;-76
2021/10/22 02:57:16;;;;;;;5.25;2.38;;;8.00;99.90;;;;;;4972186;28;19910;-76
2021/10/22 02:59:41;;;;;;;;;;;8.10;99.90;;;;;;4972974;28;20026;-75
2021/10/22 03:02:07;;;;;;;8.68;1.80;;;8.10;99.90;;;;;;4970726;28;20278;-76
2021/10/22 03:04:32;;;;;;;3.88;1.83;;;8.20;99.90;;;;;;4972923;28;20031;-76
2021/10/22 03:06:58;;;;;;;;;;;8.30;99.90;;;;;;4972620;28;20043;-76
2021/10/22 03:09:23;;;;;;;9.43;2.15;;;8.30;99.90;;;;;;4986819;28;19925;-76
2021/10/22 03:11:49;;;;;;;7.03;2.95;;;8.40;99.90;;;;;;4973476;28;20496;-76
2021/10/22 03:14:15;;;;;;;;;;;8.50;99.90;;;;;;4975134;28;20062;-76
2021/10/22 03:16:42;;;;;;;14.85;6.75;;;8.50;99.90;;;;;;4968600;28;20521;-76
2021/10/22 03:19:11;;;;;;;3.25;0.60;;;8.60;99.90;;;;;;4969231;28;20027;-75
2021/10/22 03:21:39;;;;;;;4.43;0.63;;;8.70;99.90;;;;;;4970556;28;20117;-76
2021/10/22 03:24:05;;;;;;;5.53;0.50;;;8.80;99.90;;;;;;4968744;28;20447;-76
2021/10/22 03:26:31;;;;;;;;;;;9.00;99.90;;;;;;4970198;28;20027;-76
2021/10/22 03:28:56;;;;;;;5.22;0.55;;;9.20;99.90;;;;;;4984327;28;19925;-76
2021/10/22 03:31:22;;;;;;;;;;;9.30;99.90;;;;;;4967917;28;20147;-75
2021/10/22 03:33:48;;;;;;;2.40;0.60;;;9.40;99.90;;;;;;4967987;28;19913;-76
2021/10/22 03:36:13;;;;;;;;;;;9.50;99.90;;;;;;4967839;28;20038;-76
2021/10/22 03:38:39;;;;;;;2.75;0.40;;;9.60;99.90;;;;;;4968183;28;20370;-76
2021/10/22 03:41:04;;;;;;;2.47;0.60;;;9.70;99.90;;;;;;4952033;28;20066;-76
2021/10/22 03:43:30;;;;;;;;;;;9.70;99.90;;;;;;4967852;28;20503;-76
2021/10/22 03:45:57;;;;;;;1.80;0.50;;;9.80;99.90;;;;;;4969132;28;20406;-75
2021/10/22 03:48:22;;;;;;;5.45;1.65;;;9.70;99.90;;;;;;4969184;28;20035;-76
2021/10/22 03:50:48;;;;;;;;;;;9.70;99.90;;;;;;4968303;28;20446;-76
2021/10/22 03:53:14;;;;;;;8.05;3.10;;;9.70;99.90;;;;;;4970938;28;19918;-75
2021/10/22 03:55:39;;;;;;;;;;;9.60;99.90;;;;;;4970184;28;20042;-75
2021/10/22 03:58:05;;;;;;;12.68;5.97;;;9.60;99.90;;;;;;4989308;28;19940;-75
2021/10/22 04:00:30;;;;;;;16.60;6.85;;;9.50;99.90;;;;;;4988730;28;20030;-76
2021/10/22 04:02:56;;;;;;;19.88;9.77;;;9.50;99.90;;;;;;4989139;28;20399;-78
2021/10/22 04:05:22;;;;;;;;;;;9.40;99.90;;;;;;4971447;28;20030;-75
2021/10/22 04:07:47;;;;;;;19.85;9.35;;;9.40;99.90;;;;;;4989022;28;19917;-76
2021/10/22 04:10:13;;;;;;;;;;;9.30;99.90;;;;;;4972965;28;20038;-76
2021/10/22 04:12:39;;;;;;;25.38;12.95;;;9.30;99.90;;;;;;4988381;28;19913;-76
2021/10/22 04:15:05;;;;;;;;;;;9.20;99.90;;;;;;4989782;28;20076;-75
2021/10/22 04:17:30;;;;;;;20.58;9.82;;;9.20;99.90;;;;;;4974320;28;19906;-76
2021/10/22 04:19:56;;;;;;;30.52;15.27;;;9.10;99.90;;;;;;4978399;28;20061;-78
2021/10/22 04:22:22;;;;;;;;;;;9.00;99.90;;;;;;4982445;28;20034;-75
2021/10/22 04:24:48;;;;;;;36.15;18.77;;;9.00;99.90;;;;;;4996340;28;19909;-76
2021/10/22 04:27:14;;;;;;;;;;;8.80;99.90;;;;;;4994062;28;20027;-77
2021/10/22 04:29:40;;;;;;;38.97;20.00;;;8.70;99.90;;;;;;4992703;28;19920;-75
2021/10/22 04:32:05;;;;;;;;;;;8.70;99.90;;;;;;4994693;28;20101;-76
2021/10/22 04:34:31;;;;;;;18.52;7.40;;;8.60;99.90;;;;;;4977749;28;19997;-76
2021/10/22 04:42:26;;;;;;;9.20;4.45;;;8.20;99.90;;;;;;5000302;28;20037;-77
2021/10/22 04:44:52;;;;;;;;;;;8.20;99.90;;;;;;4997148;28;20026;-76
2021/10/22 04:47:17;;;;;;;8.20;4.03;;;8.10;99.90;;;;;;4993657;28;19956;-75
2021/10/22 04:49:43;;;;;;;11.30;1.63;;;8.00;99.90;;;;;;4993875;28;20407;-75
2021/10/22 04:52:09;;;;;;;;;;;8.00;99.90;;;;;;4993747;28;20050;-75
2021/10/22 04:54:34;;;;;;;7.68;3.40;;;7.90;99.90;;;;;;4979229;28;20092;-76
2021/10/22 04:57:00;;;;;;;;;;;7.80;99.90;;;;;;4978703;28;20475;-76
2021/10/22 04:59:26;;;;;;;13.77;2.45;;;7.80;99.90;;;;;;4978459;28;19977;-75
2021/10/22 05:01:51;;;;;;;;;;;7.70;99.90;;;;;;4977835;28;20109;-75
2021/10/22 05:04:17;;;;;;;8.70;2.97;;;7.60;99.90;;;;;;4976760;28;19964;-75
2021/10/22 05:06:43;;;;;;;5.57;2.38;;;7.60;99.90;;;;;;4993755;28;20030;-76
2021/10/22 05:09:08;;;;;;;;;;;7.50;99.90;;;;;;4994959;28;20042;-76
2021/10/22 05:11:34;;;;;;;9.90;3.00;;;7.40;99.90;;;;;;4976816;28;19920;-76
2021/10/22 05:14:00;;;;;;;6.97;2.85;;;7.40;99.90;;;;;;4996805;28;20158;-76
2021/10/22 05:16:25;;;;;;;;;;;7.30;99.90;;;;;;4981143;28;20035;-75
2021/10/22 05:18:51;;;;;;;8.10;2.15;;;7.20;99.90;;;;;;4981686;28;19910;-76
2021/10/22 05:21:17;;;;;;;;;;;7.10;99.90;;;;;;4979279;28;20403;-75
2021/10/22 05:23:42;;;;;;;9.68;3.72;;;7.10;99.90;;;;;;4977099;28;20374;-76
2021/10/22 05:26:08;;;;;;;13.45;4.10;;;7.10;99.90;;;;;;4994675;28;20025;-75
2021/10/22 05:28:33;;;;;;;8.82;3.42;;;7.00;99.90;;;;;;4975949;28;20053;-75
2021/10/22 05:30:59;;;;;;;;;;;7.00;99.90;;;;;;4976455;28;20026;-75
2021/10/22 05:33:25;;;;;;;12.65;5.03;;;7.00;99.90;;;;;;4991712;28;19906;-75
2021/10/22 05:35:50;;;;;;;9.77;4.35;;;6.90;99.90;;;;;;4993810;28;20381;-75
2021/10/22 05:38:16;;;;;;;;;;;6.90;99.90;;;;;;4975863;28;20561;-76
2021/10/22 05:40:42;;;;;;;8.85;3.42;;;6.90;99.90;;;;;;4975919;28;19910;-75
2021/10/22 05:43:08;;;;;;;6.78;3.25;;;6.80;99.90;;;;;;4993804;28;20022;-76
2021/10/22 05:45:33;;;;;;;6.35;2.72;;;6.90;99.90;;;;;;4976187;28;20041;-75
2021/10/22 05:47:59;;;;;;;;;;;6.80;99.90;;;;;;4977802;28;20030;-76
2021/10/22 05:50:25;;;;;;;7.82;4.22;;;6.80;99.90;;;;;;4977188;28;19921;-76
2021/10/22 05:52:51;;;;;;;10.27;4.93;;;6.90;99.90;;;;;;4995689;28;20070;-75
2021/10/22 05:55:17;;;;;;;;;;;6.90;99.90;;;;;;4996587;28;20030;-75
2021/10/22 05:57:42;;;;;;;22.52;6.22;;;7.00;99.90;;;;;;4995159;28;19910;-75
2021/10/22 06:00:08;;;;;;;14.13;6.95;;;7.00;99.90;;;;;;4977220;28;20022;-76
2021/10/22 06:02:39;;;;;;;13.25;7.22;;;7.10;99.90;;;;;;4976882;28;20197;-75
2021/10/22 06:05:05;;;;;;;14.38;7.25;;;7.10;99.90;;;;;;4978167;28;20118;-75
2021/10/22 06:07:30;;;;;;;;;;;7.10;99.90;;;;;;4975345;28;20065;-75
2021/10/22 06:09:56;;;;;;;13.88;8.63;;;7.20;99.90;;;;;;4976924;28;19925;-75
2021/10/22 06:12:23;;;;;;;;;;;7.30;99.90;;;;;;4995105;28;20031;-75
2021/10/22 06:14:49;;;;;;;21.95;9.18;;;7.70;99.90;;;;;;4972395;28;19910;-75
2021/10/22 06:17:15;;;;;;;;;;;8.10;99.90;;;;;;4972074;28;20057;-75
2021/10/22 06:19:44;;;;;;;19.00;8.80;;;8.50;99.90;;;;;;4971399;28;19956;-75
2021/10/22 06:22:19;;;;;;;19.15;9.15;;;9.10;99.90;;;;;;4971090;28;20120;-76
2021/10/22 06:24:45;;;;;;;28.17;15.23;;;9.70;99.90;;;;;;4988525;28;20023;-76
2021/10/22 06:27:10;;;;;;;;;;;10.40;99.90;;;;;;4971228;28;20038;-76
2021/10/22 06:29:36;;;;;;;22.30;10.30;;;11.10;99.90;;;;;;4987778;28;19918;-76
2021/10/22 06:32:02;;;;;;;;;;;11.90;99.90;;;;;;4988640;28;20034;-76
2021/10/22 06:34:28;;;;;;;16.13;5.18;;;12.70;99.40;;;;;;4970541;28;20389;-76
2021/10/22 06:36:53;;;;;;;;;;;13.50;98.30;;;;;;4988147;28;20502;-75
2021/10/22 06:39:20;;;;;;;9.18;3.25;;;14.00;95.30;;;;;;4987738;28;20175;-75
2021/10/22 06:41:46;;;;;;;10.95;3.03;;;14.20;94.00;;;;;;4988108;28;20029;-75
2021/10/22 06:44:17;;;;;;;;;;;14.30;93.40;;;;;;4987737;28;20030;-76
2021/10/22 06:46:43;;;;;;;7.70;1.95;;;14.40;92.70;;;;;;4970872;28;19910;-76
2021/10/22 06:49:09;;;;;;;;;;;14.40;93.30;;;;;;4970552;28;20041;-76
2021/10/22 06:51:34;;;;;;;7.28;1.05;;;14.30;93.20;;;;;;4988031;28;20423;-76
2021/10/22 06:54:00;;;;;;;3.88;0.75;;;14.20;93.90;;;;;;4970840;28;20053;-76
2021/10/22 06:56:26;;;;;;;;;;;14.20;94.50;;;;;;4970942;28;20116;-77
2021/10/22 06:58:51;;;;;;;3.33;0.80;;;14.00;94.30;;;;;;4987139;28;19945;-77
2021/10/22 07:01:17;;;;;;;;;;;14.00;94.90;;;;;;4988496;28;20030;-76
2021/10/22 07:03:43;;;;;;;2.85;0.80;;;13.90;95.30;;;;;;4987578;28;19917;-78
2021/10/22 07:08:56;;;;;;;4.65;1.42;;;13.80;96.20;;;;;;4988009;28;20174;-80
2021/10/22 07:11:22;;;;;;;4.32;0.65;;;13.80;96.60;;;;;;4970634;28;20030;-77
2021/10/22 07:13:59;;;;;;;3.70;1.00;;;13.70;96.90;;;;;;4987568;28;20040;-77
2021/10/22 07:16:30;;;;;;;;;;;13.70;97.20;;;;;;4988272;28;20029;-78
2021/10/22 07:18:56;;;;;;;5.80;1.30;;;13.70;97.30;;;;;;4987399;28;19909;-76
2021/10/22 07:21:22;;;;;;;;;;;13.70;97.20;;;;;;4970481;28;20113;-78
2021/10/22 07:23:49;;;;;;;4.78;1.15;;;13.70;97.40;;;;;;4987503;28;20289;-76
2021/10/22 07:26:17;;;;;;;3.60;1.10;;;13.70;97.50;;;;;;4970068;28;20100;-77
2021/10/22 07:28:43;;;;;;;6.13;1.13;;;13.70;97.30;;;;;;4969351;28;20092;-77
2021/10/22 07:31:12;;;;;;;13.30;1.55;;;13.70;97.50;;;;;;4970054;28;20026;-77
2021/10/22 07:33:42;;;;;;;5.32;1.08;;;13.70;97.50;;;;;;4987427;28;20502;-77
2021/10/22 07:36:12;;;;;;;5.88;1.92;;;13.70;97.50;;;;;;4969653;28;20531;-78
2021/10/22 07:38:37;;;;;;;15.43;6.93;;;13.70;97.70;;;;;;4969771;28;20115;-77
2021/10/22 07:41:04;;;;;;;;;;;13.80;98.00;;;;;;4970128;28;20057;-79
2021/10/22 07:43:30;;;;;;;9.00;3.55;;;13.80;98.10;;;;;;4969659;28;19912;-76
2021/10/22 07:45:58;;;;;;;5.05;1.45;;;13.90;97.50;;;;;;4986786;28;20034;-78
2021/10/22 07:48:23;;;;;;;6.22;1.33;;;13.90;96.90;;;;;;4986587;28;20066;-78
2021/10/22 07:50:50;;;;;;;;;;;14.00;96.60;;;;;;4970334;28;20077;-77
2021/10/22 07:53:16;;;;;;;2.10;0.87;;;14.10;96.30;;;;;;4973704;28;19918;-78
2021/10/22 07:55:43;;;;;;;;;;;14.10;96.30;;;;;;4974148;28;20033;-78
2021/10/22 07:58:08;;;;;;;4.55;0.88;;;14.20;95.90;;;;;;4973488;28;19913;-76
2021/10/22 08:00:34;;;;;;;;;;;14.30;95.50;;;;;;4991133;28;20034;-77
2021/10/22 08:03:00;;;;;;;4.13;0.90;;;14.40;95.30;;;;;;4989925;28;20444;-76
2021/10/22 08:05:25;;;;;;;;;;;14.50;95.30;;;;;;4991342;28;20821;-77
2021/10/22 08:07:51;;;;;;;7.18;1.33;;;14.70;95.30;;;;;;4973200;28;19914;-76
2021/10/22 08:10:17;;;;;;;;;;;14.90;94.30;;;;;;4974100;28;20147;-76
2021/10/22 08:12:43;;;;;;;5.57;1.17;;;15.10;93.90;;;;;;4972483;28;19936;-77
2021/10/22 08:15:08;;;;;;;;;;;15.30;93.40;;;;;;4973889;28;20411;-77
2021/10/22 08:17:34;;;;;;;2.85;0.75;;;15.70;92.60;;;;;;4973521;28;19910;-79
2021/10/22 08:20:10;;;;;;;3.33;0.75;;;16.10;91.60;;;;;;4990672;28;20141;-78
2021/10/22 08:22:37;;;;;;;3.72;1.05;;;16.60;90.60;;;;;;4973031;28;20040;-76
2021/10/22 08:25:09;;;;;;;10.68;1.10;;;17.10;88.40;;;;;;4973128;28;20057;-77
2021/10/22 08:27:41;;;;;;;4.75;1.17;;;17.70;85.60;;;;;;4988978;28;20030;-77
2021/10/22 08:30:10;;;;;;;4.80;1.50;;;18.20;82.90;;;;;;4989717;28;20042;-78
2021/10/22 08:32:37;;;;;;;6.40;0.85;;;18.70;79.70;;;;;;4989477;28;20481;-76
2021/10/22 08:35:05;;;;;;;5.18;1.17;;;19.30;77.40;;;;;;4989522;28;20495;-77
2021/10/22 08:37:35;;;;;;;2.58;0.80;;;19.80;73.50;;;;;;4989286;28;20027;-78
2021/10/22 08:40:02;;;;;;;3.95;0.77;;;20.20;72.20;;;;;;4972171;28;20023;-76
2021/10/22 08:42:27;;;;;;;5.68;1.30;;;20.60;69.70;;;;;;4988549;28;20441;-77
2021/10/22 08:44:54;;;;;;;3.33;0.88;;;20.90;66.10;;;;;;4971677;28;20022;-77
2021/10/22 08:47:21;;;;;;;2.92;0.80;;;20.90;63.40;;;;;;4989200;28;20418;-77
2021/10/22 08:49:47;;;;;;;2.65;1.00;;;20.70;62.40;;;;;;4989336;28;20058;-77
2021/10/22 08:52:13;;;;;;;2.50;0.80;;;20.30;62.90;;;;;;4968458;28;20534;-77
2021/10/22 08:54:39;;;;;;;1.90;0.70;;;20.20;63.20;;;;;;4968638;28;20030;-77
2021/10/22 08:57:07;;;;;;;2.92;0.63;;;20.10;63.10;;;;;;4969610;28;20125;-76
2021/10/22 08:59:33;;;;;;;2.40;0.98;;;19.90;63.40;;;;;;4969789;28;20054;-77
2021/10/22 09:02:14;;;;;;;3.10;0.70;;;20.00;63.00;;;;;;4969451;28;20646;-77
2021/10/22 09:04:41;;;;;;;4.05;1.40;;;20.10;62.00;;;;;;4969571;28;20019;-77
2021/10/22 09:07:08;;;;;;;3.03;0.82;;;19.80;62.40;;;;;;4969595;28;20503;-76
2021/10/22 09:09:34;;;;;;;2.53;0.65;;;19.90;62.50;;;;;;4968674;28;20042;-78
2021/10/22 09:12:00;;;;;;;1.42;0.50;;;19.90;62.70;;;;;;4967989;28;20399;-75
2021/10/22 09:14:28;;;;;;;2.20;0.60;;;19.90;63.00;;;;;;4969418;28;20062;-76
2021/10/22 09:16:54;;;;;;;5.30;0.85;;;20.10;62.00;;;;;;4968644;28;20538;-76
2021/10/22 09:19:46;;;;;;;2.58;0.82;;;20.30;60.80;;;;;;4970367;28;20019;-76
2021/10/22 09:22:33;;;;;;;3.03;1.38;;;20.00;61.20;;;;;;4966091;28;20035;-76
2021/10/22 09:25:11;;;;;;;3.03;0.70;;;20.40;60.30;;;;;;4969629;28;20030;-77
2021/10/22 09:27:48;;;;;;;2.78;0.50;;;20.50;59.80;;;;;;4968423;28;20525;-78
2021/10/22 09:30:30;;;;;;;6.65;0.50;;;20.50;59.40;;;;;;4970350;28;20516;-78
2021/10/22 09:32:58;;;;;;;3.63;0.57;;;20.40;58.60;;;;;;4968238;28;20033;-77
2021/10/22 09:35:33;;;;;;;2.78;0.68;;;20.10;58.40;;;;;;4968943;28;20384;-75
2021/10/22 09:38:09;;;;;;;3.63;0.70;;;19.50;59.50;;;;;;4968779;28;20034;-76
2021/10/22 09:40:36;;;;;;;1.27;0.40;;;19.00;60.70;;;;;;4969604;28;20437;-75
2021/10/22 09:43:19;;;;;;;3.08;0.70;;;18.50;62.20;;;;;;4968598;28;20034;-77
2021/10/22 09:45:47;;;;;;;4.93;0.60;;;18.20;63.70;;;;;;4968213;28;20043;-76
2021/10/22 09:48:31;;;;;;;5.97;0.73;;;17.80;64.70;;;;;;4969949;28;20022;-77
2021/10/22 09:51:27;;;;;;;4.82;0.60;;;17.50;66.30;;;;;;4970910;28;20034;-75
2021/10/22 09:53:54;;;;;;;1.48;0.50;;;17.20;68.10;;;;;;4971463;28;20053;-75
2021/10/22 09:56:21;;;;;;;6.22;0.70;;;17.10;68.70;;;;;;4988588;28;20037;-77
2021/10/22 09:59:03;;;;;;;4.22;0.50;;;17.30;68.30;;;;;;4971919;28;20041;-76
2021/10/22 10:01:33;;;;;;;7.07;0.68;;;17.40;68.60;;;;;;4971467;28;20026;-76
2021/10/22 10:04:01;;;;;;;4.72;0.80;;;17.60;68.10;;;;;;4989155;28;20027;-77
2021/10/22 10:06:29;;;;;;;9.23;0.57;;;17.80;68.50;;;;;;4968408;28;20053;-77
2021/10/22 10:08:55;;;;;;;3.72;0.40;;;17.70;67.70;;;;;;4970419;28;20057;-76
2021/10/22 10:11:23;;;;;;;4.18;1.00;;;17.80;68.20;;;;;;4971209;28;20030;-77
2021/10/22 10:13:49;;;;;;;2.25;1.00;;;17.90;67.50;;;;;;4970106;28;20076;-75
2021/10/22 10:16:17;;;;;;;2.35;0.50;;;17.90;67.10;;;;;;4988915;28;20030;-75
2021/10/22 10:18:52;;;;;;;3.97;0.90;;;17.80;67.60;;;;;;4988799;28;20027;-76
2021/10/22 10:21:21;;;;;;;2.15;0.38;;;17.90;67.90;;;;;;4970971;28;20023;-75
2021/10/22 10:23:48;;;;;;;3.95;0.60;;;17.70;68.90;;;;;;4971737;28;20038;-76
2021/10/22 10:26:32;;;;;;;1.92;0.40;;;17.60;69.10;;;;;;4988252;28;20378;-77
2021/10/22 10:29:00;;;;;;;2.00;0.52;;;17.70;69.40;;;;;;4988390;28;20430;-76
2021/10/22 10:31:36;;;;;;;3.47;0.40;;;17.70;68.90;;;;;;4970990;28;20105;-77
2021/10/22 10:34:31;;;;;;;3.05;0.57;;;17.50;69.20;;;;;;4988129;28;20088;-76
2021/10/22 10:36:59;;;;;;;4.15;0.60;;;17.40;69.90;;;;;;4970593;28;20546;-75
2021/10/22 10:39:43;;;;;;;3.47;0.47;;;17.20;71.30;;;;;;4970521;28;20361;-78
2021/10/22 10:42:34;;;;;;;5.78;0.60;;;17.20;72.50;;;;;;4973332;28;20031;-77
2021/10/22 10:45:14;;;;;;;3.30;0.50;;;17.30;72.70;;;;;;4989745;28;20041;-77
2021/10/22 10:47:42;;;;;;;3.45;0.40;;;17.40;72.20;;;;;;4991956;28;20038;-77
2021/10/22 10:50:08;;;;;;;1.90;0.40;;;17.30;71.90;;;;;;4989138;28;20045;-77
2021/10/22 10:55:20;;;;;;;3.75;0.40;;;17.10;73.30;;;;;;4993267;28;20104;-77
2021/10/22 10:57:47;;;;;;;2.15;0.30;;;16.90;74.20;;;;;;4986370;28;20046;-77
2021/10/22 11:00:15;;;;;;;3.92;0.50;;;16.80;74.50;;;;;;4987021;28;20088;-76
2021/10/22 11:03:02;;;;;;;3.22;0.45;;;16.80;75.50;;;;;;4986591;28;20051;-77
2021/10/22 11:05:47;;;;;;;1.48;0.30;;;16.70;75.40;;;;;;4991909;28;20073;-75
2021/10/22 11:08:18;;;;;;;3.13;0.35;;;16.70;75.60;;;;;;4989909;28;20398;-75
2021/10/22 11:11:20;;;;;;;0.68;0.28;;;16.60;75.90;;;;;;4990660;28;20074;-75
2021/10/22 11:13:51;;;;;;;1.10;0.40;;;16.60;76.30;;;;;;4971437;28;20562;-74
2021/10/22 11:16:20;;;;;;;4.22;0.50;;;16.50;76.50;;;;;;4966731;28;20499;-75
2021/10/22 11:19:02;;;;;;;2.72;0.40;;;16.40;76.90;;;;;;4988933;28;20283;-75
2021/10/22 11:21:30;;;;;;;0.93;0.30;;;16.40;77.30;;;;;;4993402;28;20502;-76
2021/10/22 11:23:58;;;;;;;3.42;0.35;;;16.40;77.40;;;;;;4988505;28;20118;-75
2021/10/22 11:26:24;;;;;;;1.58;0.52;;;16.50;77.30;;;;;;4993130;28;20084;-75
2021/10/22 11:29:11;;;;;;;3.33;0.40;;;16.60;76.80;;;;;;4969692;28;20040;-74
2021/10/22 11:31:51;;;;;;;0.88;0.28;;;16.60;77.00;;;;;;4974726;28;20052;-74
2021/10/22 11:34:22;;;;;;;1.73;0.40;;;16.60;76.90;;;;;;4974523;28;20117;-75
2021/10/22 11:37:00;;;;;;;12.85;1.95;;;16.60;75.30;;;;;;4990298;28;20507;-76
2021/10/22 11:39:33;;;;;;;1.20;0.43;;;16.60;75.30;;;;;;4967100;28;20079;-75
2021/10/22 11:42:16;;;;;;;1.00;0.40;;;16.60;75.70;;;;;;4987210;28;20052;-75
2021/10/22 11:45:07;;;;;;;2.47;0.40;;;16.70;75.30;;;;;;4975676;28;20038;-75
2021/10/22 11:47:37;;;;;;;1.05;0.30;;;16.60;75.60;;;;;;4968845;28;20034;-75
2021/10/22 11:50:22;;;;;;;1.65;0.40;;;16.60;75.50;;;;;;4972790;28;20046;-75
2021/10/22 11:52:49;;;;;;;5.07;0.47;;;16.50;75.70;;;;;;4972303;28;20046;-76
2021/10/22 11:55:20;;;;;;;1.40;0.40;;;16.40;76.30;;;;;;4969259;28;20038;-75
2021/10/22 11:57:46;;;;;;;1.23;0.30;;;16.40;76.90;;;;;;4986770;28;20030;-75
2021/10/22 12:00:13;;;;;;;1.88;0.40;;;16.30;77.60;;;;;;4969594;28;20026;-74
2021/10/22 12:02:40;;;;;;;4.45;0.47;;;16.30;78.10;;;;;;4986823;28;20041;-75
2021/10/22 12:05:08;;;;;;;2.42;0.52;;;16.30;78.00;;;;;;4987124;28;20061;-76
2021/10/22 12:07:39;;;;;;;1.50;0.30;;;16.30;77.70;;;;;;4969425;28;20026;-75
2021/10/22 12:10:12;;;;;;;2.08;0.32;;;16.20;77.90;;;;;;4969186;28;20041;-76
2021/10/22 12:12:44;;;;;;;1.65;0.40;;;16.20;78.40;;;;;;4985988;28;20030;-76
2021/10/22 12:15:13;;;;;;;0.60;0.22;;;16.10;78.60;;;;;;4987297;28;20631;-76
2021/10/22 12:17:41;;;;;;;2.50;0.60;;;16.10;78.80;;;;;;4986942;28;20028;-76
2021/10/22 12:20:08;;;;;;;0.95;0.47;;;16.10;78.80;;;;;;4969454;28;20511;-75
2021/10/22 12:22:36;;;;;;;3.80;0.40;;;16.20;78.30;;;;;;4986798;28;20030;-75
2021/10/22 12:25:23;;;;;;;0.90;0.30;;;16.30;78.20;;;;;;4969042;28;20025;-76
2021/10/22 12:27:50;;;;;;;3.28;0.35;;;16.30;78.00;;;;;;4969552;28;20507;-75
2021/10/22 12:30:18;;;;;;;7.88;0.40;;;16.30;77.30;;;;;;4987295;28;20042;-77
2021/10/22 12:32:48;;;;;;;3.10;0.50;;;16.50;77.00;;;;;;4986211;28;20054;-76
2021/10/22 12:35:18;;;;;;;0.85;0.30;;;16.50;76.10;;;;;;4987020;28;20045;-77
2021/10/22 12:37:57;;;;;;;1.50;0.30;;;16.40;75.90;;;;;;4988395;28;20727;-76
2021/10/22 12:40:26;;;;;;;2.25;0.40;;;16.40;76.00;;;;;;4990396;28;20132;-76
2021/10/22 12:43:19;;;;;;;1.70;0.32;;;16.30;76.50;;;;;;4973360;28;20029;-75
2021/10/22 12:45:51;;;;;;;2.53;0.43;;;16.40;77.20;;;;;;4972144;28;20081;-75
2021/10/22 12:48:23;;;;;;;5.15;0.47;;;16.30;77.40;;;;;;4989614;28;20104;-75
2021/10/22 12:50:49;;;;;;;3.42;0.50;;;16.40;77.40;;;;;;4971646;28;20126;-75
2021/10/22 12:53:21;;;;;;;3.63;0.70;;;16.40;77.70;;;;;;4972011;28;20161;-79
2021/10/22 12:56:07;;;;;;;7.95;1.13;;;16.40;77.60;;;;;;4971277;28;20032;-76
2021/10/22 12:58:33;;;;;;;2.15;0.38;;;16.40;77.60;;;;;;4971419;28;20026;-76
2021/10/22 13:01:09;;;;;;;1.90;0.30;;;16.30;77.10;;;;;;4989422;28;20122;-77
2021/10/22 13:03:41;;;;;;;1.98;0.52;;;16.20;77.40;;;;;;4971722;28;20062;-79
2021/10/22 13:06:12;;;;;;;2.53;0.55;;;16.20;77.80;;;;;;4971546;28;20076;-77
2021/10/22 13:09:34;;;;;;;1.85;0.45;;;16.30;78.00;;;;;;4988848;28;20026;-78
2021/10/22 13:11:46;;;;;;;2.25;0.40;;;16.30;77.90;;;;;;4983004;28;20050;-77
2021/10/22 13:22:05;;;;;;;3.35;1.33;;;16.40;77.40;;;;;;4989913;28;20033;-77
2021/10/22 13:24:31;;;;;;;1.80;0.40;;;16.40;77.30;;;;;;4970987;28;20438;-76
2021/10/22 13:26:57;;;;;;;1.63;0.40;;;16.50;77.50;;;;;;4989059;28;20593;-78
2021/10/22 13:29:23;;;;;;;1.63;0.45;;;16.60;77.50;;;;;;4988098;28;20042;-77
2021/10/22 13:31:51;;;;;;;3.72;0.80;;;16.80;76.60;;;;;;4971133;28;20585;-77
2021/10/22 13:34:17;;;;;;;2.58;0.50;;;17.00;76.40;;;;;;4988295;28;20549;-76